createdAt,value
2022-08-19T00:01:03.809Z,156756.25
2022-08-19T00:03:34.180Z,156757.56
2022-08-19T00:06:05.700Z,156761.47
2022-08-19T00:08:38.453Z,156757.56
2022-08-19T00:11:18.701Z,156754.97
2022-08-19T00:13:57.673Z,156758.84
2022-08-19T00:16:29.618Z,156719.63
2022-08-19T00:19:00.222Z,156730.13
2022-08-19T00:21:32.738Z,156703.91
2022-08-19T00:24:03.209Z,156684.31
2022-08-19T00:26:41.755Z,156673.84
2022-08-19T00:29:13.903Z,156692.16
2022-08-19T00:31:45.664Z,156676.50
2022-08-19T00:34:17.053Z,156668.63
2022-08-19T00:36:47.527Z,156655.59
2022-08-19T00:39:19.670Z,156634.69
2022-08-19T00:41:55.182Z,156620.31
2022-08-19T00:44:29.402Z,156630.78
2022-08-19T00:47:02.879Z,156613.75
2022-08-19T00:49:38.829Z,156626.84
2022-08-19T00:52:15.401Z,156615.09
2022-08-19T00:54:53.058Z,156602.03
2022-08-19T00:57:33.056Z,156582.41
2022-08-19T01:00:06.311Z,156564.13
2022-08-19T01:02:39.337Z,156557.59
2022-08-19T01:05:17.414Z,156555.00
2022-08-19T01:07:49.127Z,156555.00
2022-08-19T01:10:23.840Z,156539.25
2022-08-19T01:13:01.970Z,156537.94
2022-08-19T01:15:40.038Z,156514.44
2022-08-19T01:18:13.692Z,156511.84
2022-08-19T01:20:45.471Z,156492.25
2022-08-19T01:23:19.661Z,156483.09
2022-08-19T01:25:53.332Z,156464.84
2022-08-19T01:28:40.078Z,156473.94
2022-08-19T01:31:27.178Z,156459.56
2022-08-19T01:33:59.989Z,156468.72
2022-08-19T01:36:37.526Z,156449.13
2022-08-19T01:39:17.386Z,156441.31
2022-08-19T01:41:47.716Z,156423.03
2022-08-19T01:44:21.373Z,156415.22
2022-08-19T01:46:52.731Z,156417.81
2022-08-19T01:49:28.328Z,156407.34
2022-08-19T01:51:59.989Z,156413.88
2022-08-19T01:54:34.513Z,156396.91
2022-08-19T01:57:09.633Z,156383.84
2022-08-19T01:59:50.779Z,156393.00
2022-08-19T02:02:21.121Z,156374.69
2022-08-19T02:04:52.027Z,156374.69
2022-08-19T02:07:25.230Z,156352.47
2022-08-19T02:09:59.392Z,156321.13
2022-08-19T02:12:48.013Z,156292.41
2022-08-19T02:15:20.281Z,156276.75
2022-08-19T02:17:52.435Z,156240.16
2022-08-19T02:20:26.143Z,156203.63
2022-08-19T02:22:57.433Z,156164.41
2022-08-19T02:25:30.122Z,156123.97
2022-08-19T02:28:02.307Z,156091.38
2022-08-19T02:30:33.366Z,156066.56
2022-08-19T02:33:03.589Z,156053.50
2022-08-19T02:35:33.705Z,156037.84
2022-08-19T02:38:16.539Z,156014.34
2022-08-19T02:40:59.262Z,156010.44
2022-08-19T02:43:33.955Z,155984.34
2022-08-19T02:46:05.775Z,155976.56
2022-08-19T02:48:44.722Z,156005.22
2022-08-19T02:51:23.310Z,156000.00
2022-08-19T02:53:55.373Z,156013.06
2022-08-19T02:56:28.702Z,156001.34
2022-08-19T02:58:59.819Z,155966.06
2022-08-19T03:01:32.239Z,155963.44
2022-08-19T03:04:07.999Z,155955.59
2022-08-19T03:06:41.876Z,155943.88
2022-08-19T03:09:13.872Z,155915.16
2022-08-19T03:11:46.799Z,155911.28
2022-08-19T03:14:19.232Z,155913.88
2022-08-19T03:16:52.446Z,155898.22
2022-08-19T03:19:24.461Z,155881.28
2022-08-19T03:21:58.057Z,155890.38
2022-08-19T03:24:29.603Z,155877.38
2022-08-19T03:27:04.993Z,155872.16
2022-08-19T03:29:43.332Z,155857.81
2022-08-19T03:32:31.708Z,155826.50
2022-08-19T03:35:03.657Z,155821.25
2022-08-19T03:37:42.199Z,155826.50
2022-08-19T03:40:16.386Z,155816.03
2022-08-19T03:42:51.112Z,155813.44
2022-08-19T03:45:22.508Z,155804.31
2022-08-19T03:47:53.941Z,155825.16
2022-08-19T03:50:27.564Z,155812.16
2022-08-19T03:53:01.032Z,155804.31
2022-08-19T03:55:30.778Z,155799.09
2022-08-19T03:58:07.713Z,155799.09
2022-08-19T04:00:38.088Z,155782.16
2022-08-19T04:03:09.370Z,155778.25
2022-08-19T04:05:40.059Z,155773.03
2022-08-19T04:08:13.867Z,155774.31
2022-08-19T04:10:45.149Z,155773.03
2022-08-19T04:13:21.531Z,155770.41
2022-08-19T04:15:52.305Z,155793.88
2022-08-19T04:18:23.064Z,155789.97
2022-08-19T04:20:54.102Z,155782.16
2022-08-19T04:23:25.013Z,155778.25
2022-08-19T04:25:59.197Z,155792.59
2022-08-19T04:28:37.920Z,155793.88
2022-08-19T04:31:09.215Z,155806.94
2022-08-19T04:33:40.036Z,155817.38
2022-08-19T04:36:12.254Z,155825.16
2022-08-19T04:38:42.399Z,155835.59
2022-08-19T04:41:24.826Z,155853.88
2022-08-19T04:44:04.158Z,155866.94
2022-08-19T04:46:40.335Z,155859.09
2022-08-19T04:49:23.739Z,155866.94
2022-08-19T04:51:59.986Z,155882.56
2022-08-19T04:54:38.677Z,155913.88
2022-08-19T04:57:12.189Z,155917.78
2022-08-19T04:59:52.800Z,155938.66
2022-08-19T05:02:26.327Z,155942.56
2022-08-19T05:05:03.481Z,155967.38
2022-08-19T05:07:34.090Z,155996.13
2022-08-19T05:10:04.321Z,155992.22
2022-08-19T05:12:38.344Z,156003.94
2022-08-19T05:15:13.836Z,156028.72
2022-08-19T05:18:06.441Z,156037.84
2022-08-19T05:20:49.444Z,156067.88
2022-08-19T05:23:22.742Z,156083.53
2022-08-19T05:25:54.361Z,156117.47
2022-08-19T05:28:27.525Z,156137.03
2022-08-19T05:31:03.953Z,156155.28
2022-08-19T05:33:35.603Z,156164.41
2022-08-19T05:36:08.435Z,156201.06
2022-08-19T05:38:41.731Z,156225.84
2022-08-19T05:41:12.609Z,156259.75
2022-08-19T05:43:42.960Z,156297.63
2022-08-19T05:46:28.076Z,156314.59
2022-08-19T05:49:02.628Z,156332.88
2022-08-19T05:51:38.360Z,156347.25
2022-08-19T05:54:09.903Z,156386.47
2022-08-19T05:56:40.397Z,156445.25
2022-08-19T05:59:13.083Z,156453.06
2022-08-19T06:01:51.735Z,156497.47
2022-08-19T06:04:27.708Z,156556.31
2022-08-19T06:07:12.075Z,156578.50
2022-08-19T06:09:43.598Z,156632.06
2022-08-19T06:12:31.743Z,156675.19
2022-08-19T06:15:02.486Z,156726.16
2022-08-19T06:17:36.281Z,156758.84
2022-08-19T06:20:08.368Z,156777.16
2022-08-19T06:22:41.905Z,156828.13
2022-08-19T06:25:13.378Z,156902.69
2022-08-19T06:28:11.508Z,156960.22
2022-08-19T06:30:36.426Z,156995.53
2022-08-19T06:33:10.843Z,157041.28
2022-08-19T06:38:36.318Z,157063.50
2022-08-19T06:41:09.343Z,157105.44
2022-08-19T06:43:42.254Z,157185.22
2022-08-19T06:46:16.686Z,157228.34
2022-08-19T06:48:50.531Z,157280.75
2022-08-19T06:51:22.778Z,157326.53
2022-08-19T06:53:55.671Z,157347.47
2022-08-19T06:56:32.228Z,157374.97
2022-08-19T06:59:03.788Z,157477.06
2022-08-19T07:01:41.755Z,157494.06
2022-08-19T07:04:27.455Z,157516.34
2022-08-19T07:07:19.557Z,157598.84
2022-08-19T07:10:00.886Z,157673.47
2022-08-19T07:12:38.168Z,157703.59
2022-08-19T07:15:12.469Z,157771.75
2022-08-19T07:17:44.991Z,157741.63
2022-08-19T07:20:21.288Z,157830.69
2022-08-19T07:22:52.416Z,157860.81
2022-08-19T07:25:32.174Z,157955.19
2022-08-19T07:28:04.831Z,157951.25
2022-08-19T07:30:38.295Z,157900.19
2022-08-19T07:33:09.892Z,158022.00
2022-08-19T07:35:44.941Z,158024.59
2022-08-19T07:38:15.978Z,158033.81
2022-08-19T07:40:47.242Z,157997.09
2022-08-19T07:43:19.422Z,158024.59
2022-08-19T07:45:51.495Z,158057.44
2022-08-19T07:48:26.098Z,158008.88
2022-08-19T07:51:03.481Z,158039.06
2022-08-19T07:53:39.678Z,158062.66
2022-08-19T07:56:11.367Z,158053.47
2022-08-19T07:58:45.694Z,158145.25
2022-08-19T08:01:20.444Z,158225.25
2022-08-19T08:04:05.682Z,158227.84
2022-08-19T08:06:53.867Z,158292.09
2022-08-19T08:09:27.000Z,158326.22
2022-08-19T08:12:05.097Z,158328.81
2022-08-19T08:14:44.130Z,158403.56
2022-08-19T08:17:16.353Z,158348.50
2022-08-19T08:20:04.125Z,158425.88
2022-08-19T08:22:52.863Z,158494.09
2022-08-19T08:25:32.484Z,158572.81
2022-08-19T08:28:03.198Z,158634.50
2022-08-19T08:30:36.990Z,158622.69
2022-08-19T08:33:08.582Z,158664.66
2022-08-19T08:35:40.107Z,158660.72
2022-08-19T08:38:14.353Z,158664.66
2022-08-19T08:40:49.798Z,158631.88
2022-08-19T08:43:32.423Z,158693.53
2022-08-19T08:46:07.762Z,158717.16
2022-08-19T08:48:52.782Z,158790.66
2022-08-19T08:51:30.881Z,158816.94
2022-08-19T08:54:11.660Z,158795.91
2022-08-19T08:56:42.700Z,158906.19
2022-08-19T08:59:23.040Z,158811.69
2022-08-19T09:01:53.210Z,158865.47
2022-08-19T09:04:24.802Z,158906.19
2022-08-19T09:07:18.255Z,158882.59
2022-08-19T09:10:11.208Z,158889.16
2022-08-19T09:12:51.155Z,158974.44
2022-08-19T09:15:36.632Z,158974.44
2022-08-19T09:18:08.458Z,159092.66
2022-08-19T09:20:50.649Z,159084.78
2022-08-19T09:23:26.800Z,159087.38
2022-08-19T09:26:01.317Z,159042.78
2022-08-19T09:28:34.075Z,159071.63
2022-08-19T09:31:04.093Z,159065.06
2022-08-19T09:33:35.070Z,159118.91
2022-08-19T09:36:31.172Z,159083.47
2022-08-19T09:39:16.028Z,159095.25
2022-08-19T09:41:51.060Z,159159.66
2022-08-19T09:44:23.497Z,159157.00
2022-08-19T09:46:54.244Z,159155.72
2022-08-19T09:49:25.318Z,159214.81
2022-08-19T09:51:57.360Z,159266.00
2022-08-19T09:54:32.451Z,159271.31
2022-08-19T09:57:10.900Z,159326.47
2022-08-19T09:59:49.039Z,159347.47
2022-08-19T10:02:22.050Z,159373.78
2022-08-19T10:05:05.847Z,159457.88
2022-08-19T10:07:36.775Z,159468.38
2022-08-19T10:10:07.894Z,159503.84
2022-08-19T10:12:43.258Z,159438.16
2022-08-19T10:15:29.206Z,159409.28
2022-08-19T10:18:00.917Z,159468.38
2022-08-19T10:20:31.363Z,159442.09
2022-08-19T10:23:06.549Z,159476.28
2022-08-19T10:25:38.667Z,159545.97
2022-08-19T10:28:19.173Z,159570.94
2022-08-19T10:30:56.861Z,159465.78
2022-08-19T10:33:38.875Z,159527.56
2022-08-19T10:36:24.090Z,159582.72
2022-08-19T10:38:58.420Z,159662.94
2022-08-19T10:41:31.319Z,159659.00
2022-08-19T10:44:11.571Z,159633.97
2022-08-19T10:46:48.727Z,159649.78
2022-08-19T10:49:24.019Z,159636.63
2022-08-19T10:52:10.209Z,159677.41
2022-08-19T10:54:54.616Z,159778.66
2022-08-19T10:57:45.996Z,159736.56
2022-08-19T11:00:27.246Z,159745.75
2022-08-19T11:02:58.327Z,159793.09
2022-08-19T11:05:29.659Z,159797.06
2022-08-19T11:08:22.578Z,159786.56
2022-08-19T11:11:01.690Z,159814.13
2022-08-19T11:13:33.539Z,159765.47
2022-08-19T11:16:09.276Z,159779.94
2022-08-19T11:18:43.884Z,159749.66
2022-08-19T11:21:21.286Z,159786.56
2022-08-19T11:23:55.416Z,159893.06
2022-08-19T11:26:28.317Z,159937.78
2022-08-19T11:29:00.747Z,159925.91
2022-08-19T11:31:36.493Z,159968.00
2022-08-19T11:34:09.510Z,159978.53
2022-08-19T11:36:43.649Z,159860.13
2022-08-19T11:39:16.575Z,159807.56
2022-08-19T11:41:48.032Z,159623.47
2022-08-19T11:44:18.455Z,159620.84
2022-08-19T11:46:56.067Z,159645.88
2022-08-19T11:49:27.491Z,159628.72
2022-08-19T11:51:59.459Z,159690.56
2022-08-19T11:54:29.708Z,159710.28
2022-08-19T11:57:02.410Z,159653.72
2022-08-19T11:59:33.484Z,159631.38
2022-08-19T12:02:06.326Z,159693.16
2022-08-19T12:04:38.914Z,159697.13
2022-08-19T12:07:09.075Z,159685.31
2022-08-19T12:09:42.862Z,159841.75
2022-08-19T12:12:14.425Z,159769.44
2022-08-19T12:14:47.614Z,159591.94
2022-08-19T12:17:23.034Z,159560.41
2022-08-19T12:19:55.818Z,159534.09
2022-08-19T12:22:26.811Z,159484.19
2022-08-19T12:24:57.685Z,159465.78
2022-08-19T12:27:40.405Z,159450.00
2022-08-19T12:30:17.164Z,159402.69
2022-08-19T12:32:53.293Z,159342.22
2022-08-19T12:35:23.874Z,159334.38
2022-08-19T12:37:59.628Z,159168.84
2022-08-19T12:40:32.670Z,159082.13
2022-08-19T12:43:03.332Z,159012.59
2022-08-19T12:45:39.745Z,158937.72
2022-08-19T12:48:33.401Z,158982.34
2022-08-19T12:51:03.928Z,159015.19
2022-08-19T12:53:34.596Z,158983.66
2022-08-19T12:56:11.507Z,158907.53
2022-08-19T12:58:49.047Z,158967.91
2022-08-19T13:01:23.853Z,159011.25
2022-08-19T13:04:01.468Z,159002.00
2022-08-19T13:06:32.483Z,158929.81
2022-08-19T13:09:02.645Z,158948.22
2022-08-19T13:11:34.260Z,158992.84
2022-08-19T13:14:09.946Z,158994.16
2022-08-19T13:16:41.495Z,158858.91
2022-08-19T13:19:16.566Z,158848.41
2022-08-19T13:21:48.989Z,158827.44
2022-08-19T13:24:27.718Z,158798.53
2022-08-19T13:27:06.114Z,158753.94
2022-08-19T13:29:48.695Z,158659.41
2022-08-19T13:32:31.258Z,158599.03
2022-08-19T13:35:05.067Z,158591.19
2022-08-19T13:37:45.909Z,158415.34
2022-08-19T13:40:22.158Z,158469.19
2022-08-19T13:42:57.405Z,158517.72
2022-08-19T13:45:30.846Z,158446.84
2022-08-19T13:48:02.003Z,158399.63
2022-08-19T13:50:38.270Z,158370.81
2022-08-19T13:53:09.348Z,158334.06
2022-08-19T13:55:41.508Z,158250.09
2022-08-19T13:58:13.653Z,158231.78
2022-08-19T14:00:51.486Z,158339.31
2022-08-19T14:03:21.789Z,158420.66
2022-08-19T14:06:12.297Z,158491.50
2022-08-19T14:08:46.200Z,158575.41
2022-08-19T14:11:17.372Z,158575.41
2022-08-19T14:13:47.536Z,158606.97
2022-08-19T14:16:18.407Z,158585.88
2022-08-19T14:18:49.496Z,158648.91
2022-08-19T14:21:27.994Z,158585.88
2022-08-19T14:23:59.919Z,158584.59
2022-08-19T14:26:30.286Z,158488.84
2022-08-19T14:29:04.943Z,158427.19
2022-08-19T14:31:35.091Z,158425.88
2022-08-19T14:34:06.395Z,158404.88
2022-08-19T14:36:47.105Z,158385.19
2022-08-19T14:39:20.403Z,158330.13
2022-08-19T14:41:50.656Z,158361.63
2022-08-19T14:44:21.520Z,158307.81
2022-08-19T14:46:51.911Z,158297.31
2022-08-19T14:49:34.778Z,158292.09
2022-08-19T14:52:16.406Z,158237.03
2022-08-19T14:54:49.571Z,158239.63
2022-08-19T14:57:21.208Z,158209.47
2022-08-19T14:59:51.380Z,158197.69
2022-08-19T15:02:35.014Z,158142.59
2022-08-19T15:05:05.694Z,158099.34
2022-08-19T15:07:39.076Z,158049.53
2022-08-19T15:10:19.777Z,158001.03
2022-08-19T15:12:51.817Z,157951.25
2022-08-19T15:15:30.951Z,157910.66
2022-08-19T15:18:05.035Z,157862.13
2022-08-19T15:20:35.484Z,157828.06
2022-08-19T15:23:11.801Z,157770.47
2022-08-19T15:25:42.579Z,157758.63
2022-08-19T15:28:13.674Z,157767.81
2022-08-19T15:30:45.168Z,157733.75
2022-08-19T15:33:18.515Z,157687.88
2022-08-19T15:35:51.741Z,157686.59
2022-08-19T15:38:27.386Z,157663.00
2022-08-19T15:41:19.801Z,157626.34
2022-08-19T15:43:52.527Z,157631.59
2022-08-19T15:46:25.134Z,157636.84
2022-08-19T15:48:59.706Z,157592.31
2022-08-19T15:51:32.589Z,157589.72
2022-08-19T15:54:09.977Z,157516.34
2022-08-19T15:56:58.342Z,157515.06
2022-08-19T15:59:43.702Z,157524.19
2022-08-19T16:02:32.997Z,157492.78
2022-08-19T16:05:18.761Z,157473.13
2022-08-19T16:07:51.502Z,157477.06
2022-08-19T16:10:27.349Z,157463.97
2022-08-19T16:12:59.274Z,157445.69
2022-08-19T16:15:33.966Z,157433.88
2022-08-19T16:18:05.315Z,157453.50
2022-08-19T16:20:36.618Z,157440.44
2022-08-19T16:23:07.368Z,157384.09
2022-08-19T16:25:40.184Z,157296.44
2022-08-19T16:28:12.302Z,157177.34
2022-08-19T16:30:48.663Z,157155.13
2022-08-19T16:33:23.235Z,157159.00
2022-08-19T16:36:00.154Z,157117.19
2022-08-19T16:38:38.111Z,157123.69
2022-08-19T16:41:11.838Z,157118.47
2022-08-19T16:43:46.167Z,157056.97
2022-08-19T16:46:19.568Z,157021.66
2022-08-19T16:48:55.403Z,157008.56
2022-08-19T16:51:28.394Z,156987.66
2022-08-19T16:53:58.994Z,156999.47
2022-08-19T16:56:34.620Z,156971.97
2022-08-19T16:59:04.966Z,156902.69
2022-08-19T17:01:35.417Z,156915.78
2022-08-19T17:04:05.879Z,156841.22
2022-08-19T17:06:38.317Z,156781.09
2022-08-19T17:09:10.473Z,156752.31
2022-08-19T17:11:43.247Z,156748.41
2022-08-19T17:14:13.779Z,156771.94
2022-08-19T17:16:45.355Z,156768.00
2022-08-19T17:19:15.544Z,156758.84
2022-08-19T17:21:46.681Z,156739.25
2022-08-19T17:24:17.458Z,156715.72
2022-08-19T17:26:52.372Z,156667.34
2022-08-19T17:29:23.477Z,156683.00
2022-08-19T17:31:56.128Z,156659.53
2022-08-19T17:34:26.562Z,156671.28
2022-08-19T17:36:59.586Z,156668.63
2022-08-19T17:39:45.094Z,156702.63
2022-08-19T17:42:17.999Z,156758.84
2022-08-19T17:44:50.851Z,156718.28
2022-08-19T17:47:21.311Z,156503.97
2022-08-19T17:49:52.126Z,156067.88
2022-08-19T17:52:23.767Z,155955.59
2022-08-19T17:54:54.837Z,155800.38
2022-08-19T17:57:29.016Z,155825.16
2022-08-19T17:59:59.297Z,155740.38
2022-08-19T18:02:29.961Z,155778.25
2022-08-19T18:05:07.923Z,155719.50
2022-08-19T18:07:39.185Z,155681.69
2022-08-19T18:10:18.001Z,155683.03
2022-08-19T18:12:50.625Z,155671.25
2022-08-19T18:15:23.057Z,155654.34
2022-08-19T18:17:56.203Z,155703.88
2022-08-19T18:20:26.587Z,155675.19
2022-08-19T18:22:59.463Z,155715.59
2022-08-19T18:25:50.532Z,155694.75
2022-08-19T18:28:24.633Z,155659.53
2022-08-19T18:30:58.628Z,155651.69
2022-08-19T18:33:30.988Z,155703.88
2022-08-19T18:36:04.345Z,155699.94
2022-08-19T18:38:54.738Z,155676.47
2022-08-19T18:41:41.457Z,155671.25
2022-08-19T18:44:29.082Z,155655.63
2022-08-19T18:47:12.377Z,155676.47
2022-08-19T18:49:46.290Z,155689.53
2022-08-19T18:52:16.504Z,155658.25
2022-08-19T18:54:48.898Z,155692.16
2022-08-19T18:57:24.965Z,155694.75
2022-08-19T19:00:02.968Z,155702.56
2022-08-19T19:02:41.431Z,155692.16
2022-08-19T19:05:13.950Z,155689.53
2022-08-19T19:07:44.881Z,155694.75
2022-08-19T19:10:15.030Z,155728.66
2022-08-19T19:12:48.300Z,155720.81
2022-08-19T19:15:26.538Z,155731.22
2022-08-19T19:17:57.008Z,155713.00
2022-08-19T19:20:35.289Z,155733.84
2022-08-19T19:23:10.118Z,155791.25
2022-08-19T19:25:50.355Z,155818.66
2022-08-19T19:28:29.009Z,155846.03
2022-08-19T19:31:02.155Z,155846.03
2022-08-19T19:33:32.374Z,155804.31
2022-08-19T19:36:05.851Z,155770.41
2022-08-19T19:38:37.773Z,155731.22
2022-08-19T19:41:08.902Z,155707.78
2022-08-19T19:43:41.008Z,155713.00
2022-08-19T19:46:15.805Z,155722.13
2022-08-19T19:48:46.436Z,155715.59
2022-08-19T19:51:21.039Z,155709.09
2022-08-19T19:53:53.898Z,155702.56
2022-08-19T19:56:25.300Z,155694.75
2022-08-19T19:58:55.806Z,155709.09
2022-08-19T20:01:31.513Z,155693.44
2022-08-19T20:04:12.422Z,155702.56
2022-08-19T20:06:43.317Z,155705.16
2022-08-19T20:09:18.907Z,155720.81
2022-08-19T20:11:54.766Z,155715.59
2022-08-19T20:14:29.226Z,155706.44
2022-08-19T20:17:07.337Z,155707.78
2022-08-19T20:19:37.866Z,155676.47
2022-08-19T20:22:10.586Z,155720.81
2022-08-19T20:24:42.792Z,155716.94
2022-08-19T20:27:12.972Z,155724.72
2022-08-19T20:29:44.582Z,155716.94
2022-08-19T20:32:22.610Z,155689.53
2022-08-19T20:34:52.816Z,155688.22
2022-08-19T20:37:22.949Z,155703.88
2022-08-19T20:40:03.306Z,155710.38
2022-08-19T20:42:35.635Z,155702.56
2022-08-19T20:45:09.913Z,155702.56
2022-08-19T20:48:05.219Z,155710.38
2022-08-19T20:50:37.984Z,155690.81
2022-08-19T20:53:14.224Z,155654.34
2022-08-19T20:55:47.516Z,155632.19
2022-08-19T20:58:19.021Z,155642.63
2022-08-19T21:00:50.231Z,155656.97
2022-08-19T21:03:27.902Z,155646.50
2022-08-19T21:05:58.987Z,155683.03
2022-08-19T21:08:30.056Z,155659.53
2022-08-19T21:11:00.561Z,155662.16
2022-08-19T21:13:33.117Z,155683.03
2022-08-19T21:16:05.515Z,155659.53
2022-08-19T21:18:43.177Z,155675.19
2022-08-19T21:21:13.649Z,155663.47
2022-08-19T21:23:45.642Z,155658.25
2022-08-19T21:26:16.551Z,155655.63
2022-08-19T21:28:48.312Z,155647.81
2022-08-19T21:31:19.185Z,155645.19
2022-08-19T21:33:53.111Z,155647.81
2022-08-19T21:36:25.667Z,155650.41
2022-08-19T21:39:09.045Z,155660.84
2022-08-19T21:41:43.463Z,155668.69
2022-08-19T21:44:14.561Z,155667.38
2022-08-19T21:46:45.715Z,155660.84
2022-08-19T21:49:24.237Z,155651.69
2022-08-19T21:51:55.399Z,155639.97
2022-08-19T21:54:27.317Z,155625.63
2022-08-19T21:57:10.535Z,155628.28
2022-08-19T21:59:44.203Z,155626.94
2022-08-19T22:02:20.478Z,155611.28
2022-08-19T22:04:55.697Z,155616.50
2022-08-19T22:07:26.629Z,155624.34
2022-08-19T22:09:57.588Z,155633.47
2022-08-19T22:12:31.627Z,155610.00
2022-08-19T22:15:05.078Z,155590.44
2022-08-19T22:17:35.234Z,155581.31
2022-08-19T22:20:10.877Z,155589.16
2022-08-19T22:22:48.877Z,155606.09
2022-08-19T22:25:31.704Z,155533.09
2022-08-19T22:28:02.700Z,155523.94
2022-08-19T22:30:35.879Z,155533.09
2022-08-19T22:33:11.763Z,155536.94
2022-08-19T22:35:46.522Z,155530.44
2022-08-19T22:38:24.382Z,155560.47
2022-08-19T22:40:56.728Z,155542.16
2022-08-19T22:43:31.765Z,155534.38
2022-08-19T22:46:05.854Z,155546.09
2022-08-19T22:48:47.200Z,155551.34
2022-08-19T22:51:32.996Z,155568.31
2022-08-19T22:54:04.053Z,155551.34
2022-08-19T22:56:34.975Z,155566.97
2022-08-19T22:59:08.735Z,155569.59
2022-08-19T23:01:41.917Z,155566.97
2022-08-19T23:04:12.364Z,155570.91
2022-08-19T23:06:48.388Z,155568.31
2022-08-19T23:09:18.715Z,155556.56
2022-08-19T23:11:55.184Z,155577.44
2022-08-19T23:14:28.219Z,155581.31
2022-08-19T23:16:59.457Z,155570.91
2022-08-19T23:19:29.930Z,155577.44
2022-08-19T23:22:07.162Z,155569.59
2022-08-19T23:24:37.623Z,155559.19
2022-08-19T23:27:21.221Z,155543.50
2022-08-19T23:30:05.981Z,155544.78
2022-08-19T23:32:38.107Z,155542.16
2022-08-19T23:35:09.161Z,155555.25
2022-08-19T23:37:42.204Z,155556.56
2022-08-19T23:40:15.237Z,155566.97
2022-08-19T23:42:47.605Z,155578.72
2022-08-19T23:45:25.549Z,155578.72
2022-08-19T23:47:57.989Z,155577.44
2022-08-19T23:50:29.973Z,155569.59
2022-08-19T23:53:13.284Z,155583.94
2022-08-19T23:55:45.395Z,155594.38
2022-08-19T23:58:17.876Z,155594.38
